createdAt,value
2018-09-08T00:00:01.089Z,76.60
2018-09-08T00:02:33.750Z,76.75
2018-09-08T00:05:04.064Z,78.42
2018-09-08T00:07:38.298Z,79.25
2018-09-08T00:10:12.417Z,80.80
2018-09-08T00:12:42.806Z,80.75
2018-09-08T00:15:18.775Z,82.24
2018-09-08T00:17:54.975Z,82.20
2018-09-08T00:20:29.991Z,83.24
2018-09-08T00:23:05.213Z,83.47
2018-09-08T00:25:40.196Z,84.19
2018-09-08T00:28:29.121Z,85.20
2018-09-08T00:31:01.039Z,85.73
2018-09-08T00:33:31.448Z,85.73
2018-09-08T00:36:01.753Z,86.14
2018-09-08T00:38:32.914Z,85.97
2018-09-08T00:41:04.377Z,83.40
2018-09-08T00:43:34.885Z,80.72
2018-09-08T00:46:06.210Z,80.02
2018-09-08T00:48:36.864Z,79.45
2018-09-08T00:51:07.211Z,79.65
2018-09-08T00:53:37.425Z,79.57
2018-09-08T00:56:07.740Z,78.92
2018-09-08T00:58:37.875Z,80.41
2018-09-08T01:01:07.843Z,80.53
2018-09-08T01:03:38.362Z,80.68
2018-09-08T01:06:08.910Z,81.42
2018-09-08T01:08:39.958Z,81.87
2018-09-08T01:11:10.495Z,83.40
2018-09-08T01:13:41.404Z,84.30
2018-09-08T01:16:13.289Z,85.66
2018-09-08T01:18:43.775Z,86.83
2018-09-08T01:21:13.927Z,86.86
2018-09-08T01:23:48.175Z,85.89
2018-09-08T01:26:20.855Z,84.23
2018-09-08T01:28:51.889Z,83.24
2018-09-08T01:31:22.421Z,82.34
2018-09-08T01:33:52.857Z,81.63
2018-09-08T01:36:24.153Z,80.90
2018-09-08T01:38:55.081Z,80.92
2018-09-08T01:41:25.475Z,79.43
2018-09-08T01:43:56.103Z,78.46
2018-09-08T01:46:28.767Z,77.49
2018-09-08T01:48:58.993Z,76.69
2018-09-08T01:51:28.881Z,75.33
2018-09-08T01:53:59.032Z,75.04
2018-09-08T01:56:29.416Z,74.57
2018-09-08T01:58:59.570Z,73.66
2018-09-08T02:01:29.823Z,73.44
2018-09-08T02:04:00.152Z,73.12
2018-09-08T02:06:30.822Z,72.45
2018-09-08T02:09:02.035Z,71.87
2018-09-08T02:11:33.025Z,70.64
2018-09-08T02:14:03.953Z,70.42
2018-09-08T02:16:35.131Z,70.54
2018-09-08T02:19:05.674Z,71.14
2018-09-08T02:21:36.204Z,70.93
2018-09-08T02:24:06.535Z,71.32
2018-09-08T02:26:36.675Z,71.43
2018-09-08T02:29:07.102Z,71.70
2018-09-08T02:31:37.780Z,72.56
2018-09-08T02:34:08.942Z,72.27
2018-09-08T02:36:39.354Z,73.20
2018-09-08T02:39:10.621Z,74.50
2018-09-08T02:41:40.871Z,74.80
2018-09-08T02:44:11.304Z,75.73
2018-09-08T02:46:43.784Z,74.22
2018-09-08T02:49:13.878Z,74.22
2018-09-08T02:51:41.945Z,75.13
2018-09-08T02:54:10.851Z,75.60
2018-09-08T02:56:38.926Z,75.48
2018-09-08T02:59:07.257Z,76.56
2018-09-08T03:01:36.345Z,76.15
2018-09-08T03:04:04.458Z,76.17
2018-09-08T03:06:32.619Z,75.54
2018-09-08T03:09:00.911Z,75.99
2018-09-08T03:11:29.307Z,76.27
2018-09-08T03:13:57.616Z,75.62
2018-09-08T03:16:25.953Z,75.89
2018-09-08T03:18:54.918Z,76.29
2018-09-08T03:21:23.069Z,76.12
2018-09-08T03:23:51.387Z,76.77
2018-09-08T03:26:19.926Z,76.21
2018-09-08T03:28:48.921Z,76.37
2018-09-08T03:31:16.943Z,76.60
2018-09-08T03:33:45.122Z,76.63
2018-09-08T03:36:13.644Z,77.24
2018-09-08T03:38:42.782Z,77.90
2018-09-08T03:41:11.736Z,77.47
2018-09-08T03:43:39.882Z,77.85
2018-09-08T03:46:08.727Z,77.50
2018-09-08T03:48:38.058Z,77.04
2018-09-08T03:51:06.192Z,76.60
2018-09-08T03:53:34.246Z,76.18
2018-09-08T03:56:03.421Z,75.40
2018-09-08T03:58:31.672Z,74.75
2018-09-08T04:00:59.699Z,74.70
2018-09-08T04:03:29.700Z,74.19
2018-09-08T04:05:59.915Z,73.49
2018-09-08T04:08:30.729Z,73.14
2018-09-08T04:11:01.037Z,72.79
2018-09-08T04:13:31.356Z,72.15
2018-09-08T04:16:01.656Z,71.40
2018-09-08T04:18:32.173Z,71.40
2018-09-08T04:21:02.255Z,70.45
2018-09-08T04:23:32.376Z,70.06
2018-09-08T04:26:02.945Z,69.64
2018-09-08T04:28:34.506Z,67.87
2018-09-08T04:31:05.925Z,67.43
2018-09-08T04:33:36.816Z,65.92
2018-09-08T04:36:07.215Z,65.94
2018-09-08T04:38:36.908Z,66.35
2018-09-08T04:41:06.931Z,65.38
2018-09-08T04:43:38.035Z,64.46
2018-09-08T04:46:09.404Z,64.00
2018-09-08T04:48:39.675Z,63.79
2018-09-08T04:51:09.444Z,63.15
2018-09-08T04:53:39.148Z,63.23
2018-09-08T04:56:09.289Z,62.53
2018-09-08T04:58:39.492Z,61.13
2018-09-08T05:01:09.864Z,60.60
2018-09-08T05:03:40.039Z,60.28
2018-09-08T05:06:10.778Z,59.58
2018-09-08T05:08:40.898Z,57.90
2018-09-08T05:11:11.003Z,58.77
2018-09-08T05:13:40.998Z,57.24
2018-09-08T05:16:12.578Z,58.42
2018-09-08T05:18:42.852Z,57.87
2018-09-08T05:21:14.439Z,58.71
2018-09-08T05:23:45.584Z,59.28
2018-09-08T05:26:15.830Z,66.88
2018-09-08T05:28:46.038Z,67.20
2018-09-08T05:31:17.557Z,64.97
2018-09-08T05:33:47.782Z,61.59
2018-09-08T05:36:18.074Z,59.23
2018-09-08T05:38:48.222Z,59.30
2018-09-08T05:41:18.277Z,57.32
2018-09-08T05:43:49.025Z,55.07
2018-09-08T05:46:19.801Z,52.73
2018-09-08T05:48:50.107Z,49.70
2018-09-08T05:51:20.327Z,46.00
2018-09-08T05:53:51.346Z,46.58
2018-09-08T05:56:21.247Z,42.93
2018-09-08T05:58:51.671Z,41.79
2018-09-08T06:01:22.265Z,43.00
2018-09-08T06:03:52.847Z,45.00
2018-09-08T06:06:23.389Z,45.45
2018-09-08T06:08:53.771Z,43.91
2018-09-08T06:11:24.019Z,42.52
2018-09-08T06:13:56.199Z,40.67
2018-09-08T06:16:26.423Z,41.81
2018-09-08T06:18:56.616Z,47.50
2018-09-08T06:21:26.840Z,41.12
2018-09-08T06:23:58.846Z,37.25
2018-09-08T06:26:28.937Z,40.52
2018-09-08T06:29:01.854Z,39.96
2018-09-08T06:31:32.068Z,41.64
2018-09-08T06:34:03.451Z,41.19
2018-09-08T06:36:33.627Z,37.26
2018-09-08T06:39:04.256Z,32.21
2018-09-08T06:41:34.383Z,28.70
2018-09-08T06:44:04.542Z,33.92
2018-09-08T06:46:35.955Z,35.94
2018-09-08T06:49:06.859Z,37.79
2018-09-08T06:51:38.023Z,40.35
2018-09-08T06:54:08.886Z,39.69
2018-09-08T06:56:39.477Z,37.85
2018-09-08T06:59:09.665Z,35.91
2018-09-08T07:01:39.988Z,36.92
2018-09-08T07:04:10.711Z,37.66
2018-09-08T07:06:41.070Z,39.24
2018-09-08T07:09:12.393Z,40.20
2018-09-08T07:11:43.450Z,41.30
2018-09-08T07:14:13.827Z,42.64
2018-09-08T07:16:44.286Z,42.15
2018-09-08T07:19:14.348Z,42.52
2018-09-08T07:21:44.582Z,42.24
2018-09-08T07:24:17.299Z,43.95
2018-09-08T07:26:47.622Z,46.64
2018-09-08T07:29:17.803Z,44.94
2018-09-08T07:31:47.809Z,44.57
2018-09-08T07:34:19.030Z,44.77
2018-09-08T07:36:49.309Z,46.88
2018-09-08T07:39:19.289Z,46.56
2018-09-08T07:41:49.577Z,47.04
2018-09-08T07:44:19.550Z,47.25
2018-09-08T07:46:49.596Z,45.90
2018-09-08T07:49:20.381Z,45.16
2018-09-08T07:51:50.757Z,43.94
2018-09-08T07:54:22.412Z,45.35
2018-09-08T07:56:52.656Z,42.65
2018-09-08T07:59:24.618Z,42.63
2018-09-08T08:01:56.160Z,42.00
2018-09-08T08:04:26.440Z,41.56
2018-09-08T08:06:57.181Z,40.85
2018-09-08T08:09:27.901Z,43.00
2018-09-08T08:11:58.528Z,41.63
2018-09-08T08:14:28.867Z,41.29
2018-09-08T08:16:59.569Z,41.01
2018-09-08T08:19:29.945Z,42.30
2018-09-08T08:22:00.007Z,42.05
2018-09-08T08:24:29.834Z,44.63
2018-09-08T08:27:00.444Z,43.78
2018-09-08T08:29:30.849Z,42.02
2018-09-08T08:32:00.702Z,41.89
2018-09-08T08:34:30.681Z,42.05
2018-09-08T08:37:01.530Z,43.89
2018-09-08T08:39:31.637Z,43.01
2018-09-08T08:42:01.452Z,42.91
2018-09-08T08:44:31.896Z,43.87
2018-09-08T08:47:02.294Z,43.20
2018-09-08T08:49:33.351Z,43.35
2018-09-08T08:52:13.930Z,44.01
2018-09-08T08:54:48.283Z,41.72
2018-09-08T08:57:18.568Z,44.86
2018-09-08T08:59:48.499Z,48.41
2018-09-08T09:02:18.342Z,49.07
2018-09-08T09:04:48.197Z,46.28
2018-09-08T09:07:18.997Z,45.11
2018-09-08T09:09:48.812Z,40.20
2018-09-08T09:12:19.088Z,41.56
2018-09-08T09:14:48.992Z,40.07
2018-09-08T09:17:18.762Z,42.44
2018-09-08T09:19:59.605Z,42.49
2018-09-08T09:22:40.161Z,41.37
2018-09-08T09:25:10.982Z,42.46
2018-09-08T09:27:49.485Z,41.53
2018-09-08T09:30:21.758Z,42.35
2018-09-08T09:32:51.745Z,40.18
2018-09-08T09:35:22.917Z,41.84
2018-09-08T09:37:53.430Z,39.16
2018-09-08T09:40:25.287Z,39.08
2018-09-08T09:42:55.468Z,38.56
2018-09-08T09:45:25.897Z,35.78
2018-09-08T09:47:58.089Z,37.71
2018-09-08T09:50:30.159Z,37.63
2018-09-08T09:53:00.441Z,39.46
2018-09-08T09:55:31.305Z,39.03
2018-09-08T09:58:01.678Z,38.50
2018-09-08T10:00:37.240Z,39.48
2018-09-08T10:03:07.536Z,39.71
2018-09-08T10:05:38.220Z,40.35
2018-09-08T10:08:08.470Z,40.76
2018-09-08T10:10:38.652Z,40.10
2018-09-08T10:13:08.868Z,41.43
2018-09-08T10:15:39.458Z,40.49
2018-09-08T10:18:09.657Z,40.46
2018-09-08T10:20:39.772Z,41.02
2018-09-08T10:23:13.012Z,41.34
2018-09-08T10:25:43.369Z,38.96
2018-09-08T10:28:13.516Z,40.98
2018-09-08T10:30:43.523Z,42.25
2018-09-08T10:33:15.971Z,42.21
2018-09-08T10:35:46.106Z,42.90
2018-09-08T10:38:16.277Z,49.20
2018-09-08T10:40:46.483Z,49.50
2018-09-08T10:43:16.673Z,52.58
2018-09-08T10:45:47.807Z,51.74
2018-09-08T10:48:18.716Z,51.55
2018-09-08T10:50:48.801Z,50.83
2018-09-08T10:53:19.284Z,50.31
2018-09-08T10:55:50.336Z,49.88
2018-09-08T10:58:20.358Z,48.66
2018-09-08T11:00:50.473Z,48.93
2018-09-08T11:03:20.494Z,48.42
2018-09-08T11:05:50.721Z,46.15
2018-09-08T11:08:24.891Z,50.02
2018-09-08T11:10:55.426Z,49.35
2018-09-08T11:13:26.304Z,49.21
2018-09-08T11:15:57.645Z,48.68
2018-09-08T11:18:27.975Z,47.76
2018-09-08T11:20:58.492Z,46.93
2018-09-08T11:23:28.739Z,47.30
2018-09-08T11:25:59.096Z,47.28
2018-09-08T11:28:29.221Z,48.02
2018-09-08T11:31:00.607Z,47.38
2018-09-08T11:33:31.324Z,47.51
2018-09-08T11:36:05.136Z,46.80
2018-09-08T11:38:35.420Z,47.89
2018-09-08T11:41:06.865Z,46.20
2018-09-08T11:43:37.343Z,44.69
2018-09-08T11:46:08.531Z,45.32
2018-09-08T11:48:38.499Z,47.03
2018-09-08T11:51:09.894Z,48.02
2018-09-08T11:53:40.244Z,46.21
2018-09-08T11:56:10.551Z,46.19
2018-09-08T11:58:40.819Z,48.19
2018-09-08T12:01:12.687Z,49.44
2018-09-08T12:03:43.848Z,49.35
2018-09-08T12:06:14.103Z,49.01
2018-09-08T12:08:44.227Z,49.71
2018-09-08T12:11:14.568Z,48.48
2018-09-08T12:13:44.585Z,47.90
2018-09-08T12:16:16.731Z,47.45
2018-09-08T12:18:46.783Z,49.15
2018-09-08T12:21:17.422Z,48.64
2018-09-08T12:23:48.317Z,49.59
2018-09-08T12:26:18.394Z,49.19
2018-09-08T12:28:48.850Z,50.34
2018-09-08T12:31:19.032Z,49.91
2018-09-08T12:33:49.250Z,49.08
2018-09-08T12:36:20.397Z,50.15
2018-09-08T12:38:53.159Z,51.82
2018-09-08T12:41:23.583Z,52.10
2018-09-08T12:43:53.697Z,50.55
2018-09-08T12:46:24.582Z,50.31
2018-09-08T12:48:56.554Z,51.04
2018-09-08T12:51:26.991Z,51.78
2018-09-08T12:53:58.430Z,53.06
2018-09-08T12:56:30.584Z,53.78
2018-09-08T12:59:01.388Z,54.25
2018-09-08T13:01:33.192Z,55.23
2018-09-08T13:04:05.776Z,56.95
2018-09-08T13:06:36.582Z,58.08
2018-09-08T13:09:07.380Z,57.46
2018-09-08T13:11:38.250Z,57.66
2018-09-08T13:14:08.858Z,56.08
2018-09-08T13:16:39.727Z,58.70
2018-09-08T13:19:10.347Z,59.76
2018-09-08T13:21:40.431Z,60.37
2018-09-08T13:24:10.769Z,60.53
2018-09-08T13:26:42.309Z,61.50
2018-09-08T13:29:17.213Z,59.55
2018-09-08T13:31:47.472Z,58.21
2018-09-08T13:34:17.591Z,59.71
2018-09-08T13:36:47.718Z,61.83
2018-09-08T13:39:21.723Z,61.59
2018-09-08T13:41:52.423Z,62.10
2018-09-08T13:44:22.465Z,62.42
2018-09-08T13:46:52.792Z,61.30
2018-09-08T13:49:23.708Z,59.45
2018-09-08T13:51:53.983Z,61.79
2018-09-08T13:54:24.960Z,60.96
2018-09-08T13:56:55.208Z,59.59
2018-09-08T13:59:25.426Z,59.57
2018-09-08T14:01:56.002Z,59.41
2018-09-08T14:04:26.967Z,58.73
2018-09-08T14:06:57.539Z,60.45
2018-09-08T14:09:28.318Z,59.73
2018-09-08T14:11:58.664Z,59.81
2018-09-08T14:14:28.751Z,60.74
2018-09-08T14:16:59.155Z,62.22
2018-09-08T14:19:29.331Z,61.74
2018-09-08T14:21:59.454Z,61.94
2018-09-08T14:24:32.469Z,62.24
2018-09-08T14:27:03.035Z,61.89
2018-09-08T14:29:33.210Z,62.59
2018-09-08T14:32:03.651Z,62.79
2018-09-08T14:34:34.418Z,63.03
2018-09-08T14:37:05.576Z,64.09
2018-09-08T14:39:35.725Z,64.64
2018-09-08T14:42:05.896Z,65.73
2018-09-08T14:44:36.223Z,65.56
2018-09-08T14:47:07.645Z,65.53
2018-09-08T14:49:37.678Z,65.03
2018-09-08T14:52:07.656Z,65.08
2018-09-08T14:54:38.038Z,66.82
2018-09-08T14:57:09.013Z,66.44
2018-09-08T14:59:39.189Z,67.60
2018-09-08T15:02:09.424Z,67.97
2018-09-08T15:04:40.389Z,68.39
2018-09-08T15:07:11.094Z,69.28
2018-09-08T15:09:41.289Z,69.47
2018-09-08T15:12:12.357Z,70.31
2018-09-08T15:14:42.478Z,71.72
2018-09-08T15:17:12.576Z,72.56
2018-09-08T15:19:42.864Z,73.65
2018-09-08T15:22:13.949Z,73.92
2018-09-08T15:24:44.162Z,73.34
2018-09-08T15:27:14.445Z,73.45
2018-09-08T15:29:45.525Z,72.82
2018-09-08T15:32:16.423Z,73.32
2018-09-08T15:34:49.149Z,72.82
2018-09-08T15:37:19.606Z,73.48
2018-09-08T15:39:50.013Z,73.65
2018-09-08T15:42:20.702Z,75.35
2018-09-08T15:44:51.106Z,74.44
2018-09-08T15:47:22.209Z,74.48
2018-09-08T15:49:52.576Z,74.25
2018-09-08T15:52:22.719Z,74.58
2018-09-08T15:54:53.174Z,74.83
2018-09-08T15:57:23.589Z,74.49
2018-09-08T15:59:53.732Z,74.62
2018-09-08T16:02:24.884Z,76.46
2018-09-08T16:04:58.590Z,76.15
2018-09-08T16:07:32.056Z,76.02
2018-09-08T16:10:03.618Z,76.76
2018-09-08T16:12:35.174Z,77.84
2018-09-08T16:15:05.391Z,77.06
2018-09-08T16:17:35.705Z,75.85
2018-09-08T16:20:06.335Z,75.94
2018-09-08T16:22:37.180Z,77.04
2018-09-08T16:25:07.755Z,77.45
2018-09-08T16:27:38.133Z,77.96
2018-09-08T16:30:08.742Z,77.42
2018-09-08T16:32:40.952Z,78.52
2018-09-08T16:35:11.183Z,79.05
2018-09-08T16:37:41.801Z,79.10
2018-09-08T16:40:12.387Z,79.42
2018-09-08T16:42:43.942Z,79.66
2018-09-08T16:45:14.251Z,80.40
2018-09-08T16:47:47.230Z,80.68
2018-09-08T16:50:18.918Z,80.46
2018-09-08T16:52:49.174Z,80.21
2018-09-08T16:55:19.449Z,80.61
2018-09-08T16:57:51.809Z,80.53
2018-09-08T17:00:22.704Z,80.59
2018-09-08T17:02:54.008Z,81.01
2018-09-08T17:05:25.419Z,81.83
2018-09-08T17:07:55.680Z,80.63
2018-09-08T17:10:26.819Z,82.15
2018-09-08T17:12:58.589Z,81.89
2018-09-08T17:15:28.684Z,81.69
2018-09-08T17:17:58.916Z,81.88
2018-09-08T17:20:30.806Z,81.68
2018-09-08T17:23:01.177Z,81.90
2018-09-08T17:25:32.024Z,81.52
2018-09-08T17:28:02.142Z,81.62
2018-09-08T17:30:32.197Z,82.00
2018-09-08T17:33:02.822Z,82.93
2018-09-08T17:35:32.969Z,82.46
2018-09-08T17:38:02.878Z,82.73
2018-09-08T17:40:33.278Z,82.04
2018-09-08T17:43:04.213Z,82.55
2018-09-08T17:45:34.322Z,83.35
2018-09-08T17:48:04.292Z,83.25
2018-09-08T17:50:35.303Z,82.82
2018-09-08T17:53:05.225Z,82.73
2018-09-08T17:55:35.638Z,82.38
2018-09-08T17:58:06.647Z,82.16
2018-09-08T18:00:38.797Z,82.80
2018-09-08T18:03:09.027Z,82.76
2018-09-08T18:05:39.206Z,82.89
2018-09-08T18:08:10.064Z,83.17
2018-09-08T18:10:40.198Z,82.65
2018-09-08T18:13:11.613Z,83.09
2018-09-08T18:15:45.426Z,83.01
2018-09-08T18:18:15.601Z,82.80
2018-09-08T18:20:48.021Z,81.75
2018-09-08T18:23:18.002Z,80.90
2018-09-08T18:25:48.275Z,79.94
2018-09-08T18:28:19.587Z,81.30
2018-09-08T18:30:50.832Z,82.11
2018-09-08T18:33:20.975Z,82.62
2018-09-08T18:35:53.759Z,82.79
2018-09-08T18:38:24.163Z,83.52
2018-09-08T18:40:55.043Z,82.40
2018-09-08T18:43:26.244Z,82.47
2018-09-08T18:45:58.577Z,82.87
2018-09-08T18:48:28.852Z,83.81
2018-09-08T18:50:58.960Z,84.80
2018-09-08T18:53:30.158Z,85.22
2018-09-08T18:56:01.607Z,85.41
2018-09-08T18:58:32.810Z,84.13
2018-09-08T19:01:03.740Z,84.48
2018-09-08T19:03:34.090Z,84.28
2018-09-08T19:06:04.831Z,85.43
2018-09-08T19:08:40.020Z,85.96
2018-09-08T19:11:11.046Z,87.39
2018-09-08T19:13:42.068Z,88.03
2018-09-08T19:16:12.829Z,88.64
2018-09-08T19:18:44.235Z,89.67
2018-09-08T19:21:14.520Z,89.84
2018-09-08T19:23:44.738Z,90.02
2018-09-08T19:26:15.153Z,90.33
2018-09-08T19:28:50.981Z,90.85
2018-09-08T19:31:21.414Z,91.48
2018-09-08T19:33:51.793Z,90.58
2018-09-08T19:36:23.077Z,90.55
2018-09-08T19:38:53.579Z,89.93
2018-09-08T19:41:23.981Z,89.53
2018-09-08T19:43:55.947Z,89.67
2018-09-08T19:49:06.141Z,91.04
2018-09-08T19:51:39.761Z,91.49
2018-09-08T19:54:11.384Z,91.44
2018-09-08T19:56:46.578Z,92.46
2018-09-08T19:59:16.631Z,92.57
2018-09-08T20:01:47.282Z,91.91
2018-09-08T20:04:18.020Z,91.54
2018-09-08T20:06:47.997Z,91.12
2018-09-08T20:09:19.294Z,89.93
2018-09-08T20:11:50.195Z,89.78
2018-09-08T20:14:22.025Z,89.18
2018-09-08T20:16:52.359Z,88.52
2018-09-08T20:19:22.634Z,88.62
2018-09-08T20:21:52.590Z,88.65
2018-09-08T20:26:52.443Z,88.52
2018-09-08T20:29:22.690Z,89.10
2018-09-08T20:31:55.756Z,89.44
2018-09-08T20:34:25.917Z,90.25
2018-09-08T20:36:56.192Z,89.90
2018-09-08T20:39:26.419Z,89.16
2018-09-08T20:41:56.558Z,89.47
2018-09-08T20:44:26.688Z,89.35
2018-09-08T20:46:57.704Z,88.46
2018-09-08T20:49:28.028Z,89.31
2018-09-08T20:51:58.582Z,88.62
2018-09-08T20:54:28.875Z,88.37
2018-09-08T20:56:59.817Z,88.27
2018-09-08T20:59:30.740Z,88.25
2018-09-08T21:02:01.500Z,88.54
2018-09-08T21:04:31.688Z,88.16
2018-09-08T21:07:02.088Z,88.59
2018-09-08T21:09:32.320Z,88.48
2018-09-08T21:12:02.533Z,88.72
2018-09-08T21:14:32.534Z,89.65
2018-09-08T21:17:05.076Z,90.07
2018-09-08T21:19:35.195Z,90.11
2018-09-08T21:22:05.736Z,89.05
2018-09-08T21:24:36.571Z,89.42
2018-09-08T21:27:06.829Z,88.74
2018-09-08T21:29:37.652Z,89.02
2018-09-08T21:32:07.623Z,89.35
2018-09-08T21:34:37.568Z,89.62
2018-09-08T21:37:08.161Z,89.43
2018-09-08T21:39:38.386Z,89.08
2018-09-08T21:42:12.067Z,89.36
2018-09-08T21:44:44.262Z,89.29
2018-09-08T21:47:14.317Z,89.53
2018-09-08T21:49:44.816Z,89.49
2018-09-08T21:52:15.021Z,89.33
2018-09-08T21:54:45.025Z,89.38
2018-09-08T21:57:15.416Z,89.46
2018-09-08T21:59:45.591Z,89.96
2018-09-08T22:02:15.784Z,89.53
2018-09-08T22:04:45.744Z,88.69
2018-09-08T22:07:15.950Z,89.49
2018-09-08T22:09:46.104Z,89.42
2018-09-08T22:12:16.735Z,91.35
2018-09-08T22:14:47.020Z,91.95
2018-09-08T22:17:17.116Z,93.62
2018-09-08T22:19:47.239Z,92.84
2018-09-08T22:22:17.469Z,94.47
2018-09-08T22:24:47.792Z,95.22
2018-09-08T22:27:17.918Z,97.07
2018-09-08T22:29:48.072Z,99.19
2018-09-08T22:32:18.283Z,100.00
2018-09-08T22:34:48.468Z,100.00
2018-09-08T22:37:18.417Z,100.00
2018-09-08T22:39:48.784Z,100.00
2018-09-08T22:42:20.194Z,100.00
2018-09-08T22:44:50.925Z,100.00
2018-09-08T22:47:21.192Z,100.00
2018-09-08T22:49:51.392Z,100.00
2018-09-08T22:52:22.988Z,99.95
2018-09-08T22:54:53.203Z,97.76
2018-09-08T22:57:23.532Z,94.48
2018-09-08T22:59:53.631Z,94.56
2018-09-08T23:02:24.418Z,94.16
2018-09-08T23:04:55.673Z,92.32
2018-09-08T23:07:26.180Z,90.92
2018-09-08T23:09:56.461Z,90.51
2018-09-08T23:12:27.147Z,90.48
2018-09-08T23:15:00.118Z,90.37
2018-09-08T23:17:30.334Z,90.18
2018-09-08T23:20:00.787Z,89.25
2018-09-08T23:22:31.630Z,89.97
2018-09-08T23:25:03.348Z,89.62
2018-09-08T23:27:33.656Z,89.40
2018-09-08T23:30:03.962Z,88.68
2018-09-08T23:32:34.178Z,87.73
2018-09-08T23:35:05.438Z,87.43
2018-09-08T23:37:35.722Z,86.92
2018-09-08T23:40:06.070Z,86.12
2018-09-08T23:42:36.284Z,86.01
2018-09-08T23:45:08.752Z,86.45
2018-09-08T23:47:39.149Z,86.52
2018-09-08T23:50:10.529Z,85.29
2018-09-08T23:52:40.996Z,84.93
2018-09-08T23:55:12.568Z,85.21
2018-09-08T23:57:43.257Z,86.27
